createdAt,value
2022-09-06T00:00:57.132Z,19.48
2022-09-06T00:03:24.201Z,19.39
2022-09-06T00:05:51.171Z,19.40
2022-09-06T00:08:18.310Z,19.39
2022-09-06T00:10:45.185Z,19.37
2022-09-06T00:13:13.349Z,19.36
2022-09-06T00:15:40.657Z,19.34
2022-09-06T00:18:07.774Z,19.32
2022-09-06T00:20:35.025Z,19.30
2022-09-06T00:23:05.783Z,19.27
2022-09-06T00:25:33.332Z,19.23
2022-09-06T00:28:02.004Z,19.23
2022-09-06T00:30:29.370Z,19.23
2022-09-06T00:32:56.275Z,19.20
2022-09-06T00:35:24.827Z,19.19
2022-09-06T00:37:52.630Z,19.17
2022-09-06T00:40:19.522Z,19.15
2022-09-06T00:42:46.406Z,19.12
2022-09-06T00:45:13.490Z,19.12
2022-09-06T00:47:41.649Z,19.11
2022-09-06T00:50:09.330Z,19.09
2022-09-06T00:52:36.621Z,19.08
2022-09-06T00:55:04.353Z,19.04
2022-09-06T00:57:32.257Z,19.03
2022-09-06T00:59:59.378Z,19.00
2022-09-06T01:02:26.298Z,18.98
2022-09-06T01:04:53.308Z,18.97
2022-09-06T01:07:40.206Z,18.96
2022-09-06T01:10:30.346Z,18.93
2022-09-06T01:13:04.365Z,18.91
2022-09-06T01:15:45.702Z,18.89
2022-09-06T01:18:23.793Z,18.86
2022-09-06T01:21:15.029Z,18.83
2022-09-06T01:23:51.282Z,18.82
2022-09-06T01:26:53.761Z,18.81
2022-09-06T01:29:46.778Z,18.79
2022-09-06T01:32:38.937Z,18.76
2022-09-06T01:35:07.405Z,18.75
2022-09-06T01:37:34.269Z,18.70
2022-09-06T01:40:01.252Z,18.66
2022-09-06T01:42:31.803Z,18.64
2022-09-06T01:45:02.622Z,18.63
2022-09-06T01:47:52.964Z,18.65
2022-09-06T01:50:46.469Z,18.60
2022-09-06T01:53:52.143Z,18.61
2022-09-06T01:56:40.305Z,18.58
2022-09-06T01:59:07.341Z,18.54
2022-09-06T02:01:38.304Z,18.51
2022-09-06T02:04:18.133Z,18.50
2022-09-06T02:06:47.641Z,18.48
2022-09-06T02:09:20.702Z,18.44
2022-09-06T02:11:58.995Z,18.41
2022-09-06T02:14:31.973Z,18.36
2022-09-06T02:16:59.412Z,18.29
2022-09-06T02:19:44.577Z,18.34
2022-09-06T02:22:12.730Z,18.33
2022-09-06T02:24:40.790Z,18.30
2022-09-06T02:27:07.829Z,18.30
2022-09-06T02:29:34.974Z,18.23
2022-09-06T02:32:06.405Z,18.20
2022-09-06T02:34:33.241Z,18.20
2022-09-06T02:37:00.443Z,18.14
2022-09-06T02:39:27.366Z,18.14
2022-09-06T02:41:54.775Z,18.09
2022-09-06T02:44:22.050Z,18.04
2022-09-06T02:46:48.886Z,18.02
2022-09-06T02:49:15.714Z,18.03
2022-09-06T02:51:42.883Z,18.01
2022-09-06T02:54:09.689Z,17.97
2022-09-06T02:56:36.825Z,17.95
2022-09-06T02:59:05.540Z,17.89
2022-09-06T03:01:33.604Z,17.86
2022-09-06T03:04:00.777Z,17.84
2022-09-06T03:06:28.102Z,17.86
2022-09-06T03:08:54.962Z,17.80
2022-09-06T03:11:21.901Z,17.82
2022-09-06T03:13:51.091Z,17.77
2022-09-06T03:16:18.411Z,17.73
2022-09-06T03:18:45.445Z,17.73
2022-09-06T03:21:12.623Z,17.71
2022-09-06T03:23:39.633Z,17.69
2022-09-06T03:26:07.179Z,17.67
2022-09-06T03:28:34.364Z,17.65
2022-09-06T03:31:01.263Z,17.62
2022-09-06T03:33:28.187Z,17.59
2022-09-06T03:36:00.064Z,17.57
2022-09-06T03:38:27.442Z,17.54
2022-09-06T03:40:54.718Z,17.52
2022-09-06T03:43:23.132Z,17.49
2022-09-06T03:45:54.775Z,17.46
2022-09-06T03:48:23.082Z,17.46
2022-09-06T03:50:52.226Z,17.41
2022-09-06T03:53:19.148Z,17.39
2022-09-06T03:55:46.831Z,17.37
2022-09-06T03:58:14.135Z,17.34
2022-09-06T04:00:41.123Z,17.34
2022-09-06T04:03:08.028Z,17.30
2022-09-06T04:05:35.358Z,17.23
2022-09-06T04:08:02.569Z,17.22
2022-09-06T04:10:29.634Z,17.20
2022-09-06T04:12:56.691Z,17.21
2022-09-06T04:15:23.491Z,17.21
2022-09-06T04:17:50.495Z,17.22
2022-09-06T04:20:17.659Z,17.17
2022-09-06T04:22:44.518Z,17.12
2022-09-06T04:25:11.466Z,17.09
2022-09-06T04:27:38.556Z,17.08
2022-09-06T04:30:06.042Z,17.05
2022-09-06T04:32:32.915Z,17.15
2022-09-06T04:35:00.023Z,17.18
2022-09-06T04:37:26.918Z,17.19
2022-09-06T04:39:54.348Z,17.14
2022-09-06T04:42:21.462Z,17.11
2022-09-06T04:44:48.282Z,17.09
2022-09-06T04:47:15.489Z,17.09
2022-09-06T04:49:43.030Z,17.07
2022-09-06T04:52:10.098Z,17.06
2022-09-06T04:54:37.123Z,17.07
2022-09-06T04:57:04.365Z,17.07
2022-09-06T04:59:31.306Z,17.06
2022-09-06T05:01:58.205Z,17.05
2022-09-06T05:04:25.554Z,17.06
2022-09-06T05:07:06.238Z,17.06
2022-09-06T05:09:33.606Z,17.07
2022-09-06T05:12:00.695Z,17.08
2022-09-06T05:14:28.204Z,17.10
2022-09-06T05:16:55.599Z,17.11
2022-09-06T05:19:22.653Z,17.14
2022-09-06T05:21:51.243Z,17.15
2022-09-06T05:24:18.449Z,17.16
2022-09-06T05:26:45.293Z,17.24
2022-09-06T05:29:12.245Z,17.24
2022-09-06T05:31:39.385Z,17.26
2022-09-06T05:34:06.427Z,17.29
2022-09-06T05:36:33.389Z,17.36
2022-09-06T05:39:00.493Z,17.36
2022-09-06T05:41:27.610Z,17.43
2022-09-06T05:43:54.438Z,17.46
2022-09-06T05:46:21.634Z,17.54
2022-09-06T05:48:55.396Z,17.56
2022-09-06T05:51:22.505Z,17.60
2022-09-06T05:53:49.401Z,17.66
2022-09-06T05:56:16.487Z,17.68
2022-09-06T05:58:43.678Z,17.72
2022-09-06T06:01:27.844Z,17.78
2022-09-06T06:03:59.031Z,17.82
2022-09-06T06:06:27.636Z,17.87
2022-09-06T06:08:54.563Z,17.87
2022-09-06T06:11:21.652Z,17.93
2022-09-06T06:13:48.539Z,17.98
2022-09-06T06:16:16.761Z,18.00
2022-09-06T06:18:51.778Z,18.05
2022-09-06T06:21:20.794Z,18.12
2022-09-06T06:23:50.826Z,18.14
2022-09-06T06:26:17.730Z,18.21
2022-09-06T06:28:44.627Z,18.23
2022-09-06T06:31:14.712Z,18.28
2022-09-06T06:33:41.923Z,18.32
2022-09-06T06:36:15.050Z,18.33
2022-09-06T06:38:43.257Z,18.38
2022-09-06T06:41:11.841Z,18.41
2022-09-06T06:43:38.731Z,18.46
2022-09-06T06:46:10.488Z,18.50
2022-09-06T06:48:38.039Z,18.53
2022-09-06T06:51:04.967Z,18.59
2022-09-06T06:53:33.356Z,18.58
2022-09-06T06:56:00.182Z,18.59
2022-09-06T06:58:27.446Z,18.65
2022-09-06T07:00:54.698Z,18.70
2022-09-06T07:03:21.774Z,18.74
2022-09-06T07:08:37.305Z,18.81
2022-09-06T07:11:07.901Z,18.85
2022-09-06T07:13:34.860Z,18.86
2022-09-06T07:16:13.608Z,18.92
2022-09-06T07:18:43.454Z,18.93
2022-09-06T07:24:08.729Z,19.01
2022-09-06T07:26:37.619Z,18.98
2022-09-06T07:29:05.047Z,19.01
2022-09-06T07:34:20.703Z,19.12
2022-09-06T07:36:48.380Z,19.12
2022-09-06T07:39:15.395Z,19.14
2022-09-06T07:41:43.029Z,19.17
2022-09-06T07:44:10.176Z,19.21
2022-09-06T07:46:37.354Z,19.25
2022-09-06T07:49:05.490Z,19.27
2022-09-06T07:51:32.602Z,19.35
2022-09-06T07:54:19.251Z,19.33
2022-09-06T07:56:46.550Z,19.48
2022-09-06T07:59:13.569Z,19.53
2022-09-06T08:01:40.623Z,19.46
2022-09-06T08:04:15.251Z,19.45
2022-09-06T08:09:35.579Z,19.54
2022-09-06T08:12:09.370Z,19.52
2022-09-06T08:14:36.548Z,19.51
2022-09-06T08:17:03.505Z,19.55
2022-09-06T08:19:30.352Z,19.62
2022-09-06T08:21:57.439Z,19.63
2022-09-06T08:24:24.286Z,19.62
2022-09-06T08:26:51.250Z,19.71
2022-09-06T08:29:19.888Z,19.74
2022-09-06T08:31:46.983Z,19.71
2022-09-06T08:34:15.195Z,19.73
2022-09-06T08:36:42.470Z,19.74
2022-09-06T08:39:10.183Z,19.80
2022-09-06T08:42:06.883Z,19.80
2022-09-06T08:47:24.854Z,19.87
2022-09-06T08:50:02.288Z,19.94
2022-09-06T08:52:45.350Z,19.93
2022-09-06T08:55:44.973Z,19.97
2022-09-06T08:58:44.516Z,19.99
2022-09-06T09:01:18.468Z,20.06
2022-09-06T09:03:45.470Z,20.11
2022-09-06T09:06:12.602Z,20.13
2022-09-06T09:08:54.111Z,20.17
2022-09-06T09:11:22.215Z,20.18
2022-09-06T09:13:59.551Z,20.25
2022-09-06T09:16:26.763Z,20.32
2022-09-06T09:18:59.652Z,20.33
2022-09-06T09:21:30.670Z,20.38
2022-09-06T09:24:02.641Z,20.45
2022-09-06T09:26:32.849Z,20.49
2022-09-06T09:29:10.882Z,20.56
2022-09-06T09:31:40.499Z,20.60
2022-09-06T09:34:11.606Z,20.70
2022-09-06T09:36:38.926Z,20.74
2022-09-06T09:39:10.628Z,20.82
2022-09-06T09:41:39.713Z,20.90
2022-09-06T09:44:16.091Z,20.93
2022-09-06T09:46:43.565Z,21.01
2022-09-06T09:49:35.052Z,21.14
2022-09-06T09:52:13.478Z,21.24
2022-09-06T09:54:44.944Z,21.36
2022-09-06T09:57:14.752Z,21.42
2022-09-06T09:59:47.570Z,21.47
2022-09-06T10:02:35.878Z,21.67
2022-09-06T10:05:05.204Z,21.73
2022-09-06T10:07:33.076Z,21.81
2022-09-06T10:10:07.451Z,21.84
2022-09-06T10:12:36.324Z,21.97
2022-09-06T10:15:06.892Z,21.98
2022-09-06T10:17:52.542Z,22.06
2022-09-06T10:20:19.668Z,22.16
2022-09-06T10:23:05.320Z,22.26
2022-09-06T10:25:38.599Z,22.36
2022-09-06T10:28:22.447Z,22.41
2022-09-06T10:31:20.483Z,22.57
2022-09-06T10:33:56.431Z,22.58
2022-09-06T10:36:48.954Z,22.69
2022-09-06T10:39:54.918Z,22.77
2022-09-06T10:42:45.487Z,22.92
2022-09-06T10:45:21.925Z,22.95
2022-09-06T10:48:04.800Z,23.11
2022-09-06T10:51:10.315Z,23.15
2022-09-06T10:53:40.126Z,23.23
2022-09-06T10:56:08.689Z,23.25
2022-09-06T11:01:42.753Z,23.50
2022-09-06T11:04:13.140Z,23.60
2022-09-06T11:06:44.531Z,23.67
2022-09-06T11:09:47.425Z,23.77
2022-09-06T11:12:27.407Z,23.83
2022-09-06T11:14:54.516Z,23.93
2022-09-06T11:17:41.177Z,23.97
2022-09-06T11:20:17.062Z,24.00
2022-09-06T11:23:02.267Z,24.01
2022-09-06T11:25:50.604Z,24.10
2022-09-06T11:28:22.351Z,24.18
2022-09-06T11:30:49.298Z,24.23
2022-09-06T11:33:29.835Z,24.35
2022-09-06T11:36:34.580Z,24.38
2022-09-06T11:39:02.677Z,24.45
2022-09-06T11:41:34.920Z,24.49
2022-09-06T11:44:02.027Z,24.54
2022-09-06T11:46:35.122Z,24.57
2022-09-06T11:49:06.717Z,24.66
2022-09-06T11:51:43.961Z,24.66
2022-09-06T11:54:34.555Z,24.69
2022-09-06T11:57:03.150Z,24.69
2022-09-06T11:59:33.291Z,24.72
2022-09-06T12:02:27.453Z,24.78
2022-09-06T12:05:00.966Z,24.87
2022-09-06T12:07:28.596Z,24.88
2022-09-06T12:09:55.748Z,24.96
2022-09-06T12:12:44.255Z,25.05
2022-09-06T12:15:26.626Z,25.11
2022-09-06T12:17:53.521Z,25.14
2022-09-06T12:20:45.726Z,25.22
2022-09-06T12:23:35.236Z,25.28
2022-09-06T12:26:06.569Z,25.30
2022-09-06T12:28:47.087Z,25.34
2022-09-06T12:31:39.152Z,25.40
2022-09-06T12:34:27.514Z,25.45
2022-09-06T12:36:58.533Z,25.49
2022-09-06T12:39:25.588Z,25.56
2022-09-06T12:41:55.818Z,25.61
2022-09-06T12:44:43.369Z,25.63
2022-09-06T12:47:15.153Z,25.70
2022-09-06T12:49:42.247Z,25.72
2022-09-06T12:52:14.665Z,25.80
2022-09-06T12:54:46.829Z,25.84
2022-09-06T12:57:19.485Z,25.82
2022-09-06T12:59:56.783Z,25.81
2022-09-06T13:02:25.571Z,25.88
2022-09-06T13:04:55.970Z,25.95
2022-09-06T13:07:23.396Z,26.03
2022-09-06T13:09:52.055Z,26.13
2022-09-06T13:12:34.808Z,26.14
2022-09-06T13:15:13.589Z,26.17
2022-09-06T13:17:40.459Z,26.18
2022-09-06T13:20:15.800Z,26.24
2022-09-06T13:22:47.979Z,26.27
2022-09-06T13:25:21.291Z,26.26
2022-09-06T13:27:56.626Z,26.25
2022-09-06T13:30:46.748Z,26.31
2022-09-06T13:33:25.713Z,26.39
2022-09-06T13:36:16.273Z,26.44
2022-09-06T13:38:44.243Z,26.47
2022-09-06T13:41:26.760Z,26.54
2022-09-06T13:44:04.760Z,26.51
2022-09-06T13:46:36.387Z,26.47
2022-09-06T13:49:03.501Z,26.51
2022-09-06T13:51:30.365Z,26.51
2022-09-06T13:54:08.025Z,26.52
2022-09-06T13:56:35.269Z,26.56
2022-09-06T13:59:02.989Z,26.57
2022-09-06T14:01:30.032Z,26.49
2022-09-06T14:03:57.618Z,26.57
2022-09-06T14:06:24.762Z,26.60
2022-09-06T14:09:08.277Z,26.67
2022-09-06T14:11:36.049Z,26.67
2022-09-06T14:14:02.953Z,26.66
2022-09-06T14:16:30.102Z,26.65
2022-09-06T14:18:57.581Z,26.67
2022-09-06T14:21:24.509Z,26.63
2022-09-06T14:23:51.690Z,26.69
2022-09-06T14:26:19.816Z,26.66
2022-09-06T14:28:46.793Z,26.63
2022-09-06T14:31:15.416Z,26.67
2022-09-06T14:33:42.809Z,26.61
2022-09-06T14:36:12.048Z,26.54
2022-09-06T14:38:40.108Z,26.63
2022-09-06T14:41:08.001Z,26.61
2022-09-06T14:43:35.429Z,26.61
2022-09-06T14:46:10.460Z,26.64
2022-09-06T14:48:41.626Z,26.64
2022-09-06T14:51:09.632Z,26.61
2022-09-06T14:53:43.045Z,26.59
2022-09-06T14:56:10.740Z,26.55
2022-09-06T14:58:38.236Z,26.56
2022-09-06T15:01:08.522Z,26.59
2022-09-06T15:03:36.073Z,26.57
2022-09-06T15:06:03.533Z,26.59
2022-09-06T15:08:30.473Z,26.51
2022-09-06T15:10:58.453Z,26.44
2022-09-06T15:13:27.028Z,26.36
2022-09-06T15:15:57.268Z,26.41
2022-09-06T15:18:24.614Z,26.44
2022-09-06T15:20:51.529Z,26.38
2022-09-06T15:23:25.917Z,26.27
2022-09-06T15:25:54.194Z,26.34
2022-09-06T15:28:21.270Z,26.37
2022-09-06T15:30:48.820Z,26.40
2022-09-06T15:33:16.101Z,26.35
2022-09-06T15:35:43.293Z,26.29
2022-09-06T15:38:11.487Z,26.24
2022-09-06T15:40:38.998Z,26.19
2022-09-06T15:43:06.349Z,26.16
2022-09-06T15:45:36.027Z,26.15
2022-09-06T15:48:03.428Z,26.20
2022-09-06T15:50:50.386Z,26.14
2022-09-06T15:53:19.188Z,26.04
2022-09-06T15:55:58.139Z,26.02
2022-09-06T15:58:26.744Z,26.09
2022-09-06T16:01:50.132Z,26.06
2022-09-06T16:04:35.620Z,26.07
2022-09-06T16:07:03.229Z,26.02
2022-09-06T16:09:30.141Z,25.93
2022-09-06T16:11:57.175Z,25.91
2022-09-06T16:14:24.329Z,25.98
2022-09-06T16:16:54.938Z,25.99
2022-09-06T16:19:21.992Z,25.96
2022-09-06T16:21:49.345Z,25.95
2022-09-06T16:24:16.336Z,25.86
2022-09-06T16:26:44.476Z,25.89
2022-09-06T16:29:12.492Z,25.82
2022-09-06T16:31:40.776Z,25.80
2022-09-06T16:34:11.981Z,25.80
2022-09-06T16:36:39.345Z,25.79
2022-09-06T16:39:06.627Z,25.77
2022-09-06T16:41:40.762Z,25.73
2022-09-06T16:44:16.313Z,25.72
2022-09-06T16:46:44.802Z,25.70
2022-09-06T16:49:12.014Z,25.68
2022-09-06T16:51:39.047Z,25.65
2022-09-06T16:54:06.027Z,25.62
2022-09-06T16:56:35.756Z,25.58
2022-09-06T16:59:05.241Z,25.53
2022-09-06T17:01:32.531Z,25.52
2022-09-06T17:04:02.262Z,25.49
2022-09-06T17:06:29.584Z,25.46
2022-09-06T17:08:58.532Z,25.41
2022-09-06T17:11:26.190Z,25.37
2022-09-06T17:13:54.199Z,25.33
2022-09-06T17:16:40.243Z,25.28
2022-09-06T17:19:07.542Z,25.27
2022-09-06T17:21:34.634Z,25.25
2022-09-06T17:24:04.671Z,25.22
2022-09-06T17:26:33.866Z,25.16
2022-09-06T17:29:00.854Z,25.12
2022-09-06T17:31:28.276Z,25.07
2022-09-06T17:33:55.589Z,25.03
2022-09-06T17:36:24.241Z,24.98
2022-09-06T17:38:53.539Z,24.93
2022-09-06T17:41:27.416Z,24.88
2022-09-06T17:43:54.749Z,24.83
2022-09-06T17:46:26.472Z,24.80
2022-09-06T17:48:56.337Z,24.73
2022-09-06T17:51:24.017Z,24.66
2022-09-06T17:53:52.242Z,24.61
2022-09-06T17:56:19.653Z,24.57
2022-09-06T17:58:57.109Z,24.53
2022-09-06T18:01:25.007Z,24.47
2022-09-06T18:03:52.580Z,24.42
2022-09-06T18:06:20.580Z,24.38
2022-09-06T18:08:48.000Z,24.33
2022-09-06T18:11:18.076Z,24.30
2022-09-06T18:13:45.213Z,24.26
2022-09-06T18:16:14.202Z,24.20
2022-09-06T18:18:41.421Z,24.16
2022-09-06T18:21:08.392Z,24.12
2022-09-06T18:23:35.952Z,24.08
2022-09-06T18:26:07.072Z,24.01
2022-09-06T18:28:35.401Z,24.00
2022-09-06T18:31:07.450Z,23.95
2022-09-06T18:33:37.236Z,23.93
2022-09-06T18:36:06.102Z,23.91
2022-09-06T18:38:34.692Z,23.87
2022-09-06T18:41:04.264Z,23.85
2022-09-06T18:43:33.128Z,23.83
2022-09-06T18:46:04.146Z,23.78
2022-09-06T18:48:32.898Z,23.74
2022-09-06T18:51:07.386Z,23.67
2022-09-06T18:53:35.213Z,23.65
2022-09-06T18:56:02.678Z,23.63
2022-09-06T18:58:29.842Z,23.60
2022-09-06T19:01:05.486Z,23.56
2022-09-06T19:03:32.980Z,23.53
2022-09-06T19:06:07.044Z,23.49
2022-09-06T19:08:34.609Z,23.44
2022-09-06T19:11:07.725Z,23.43
2022-09-06T19:13:37.169Z,23.38
2022-09-06T19:16:05.954Z,23.37
2022-09-06T19:18:33.690Z,23.29
2022-09-06T19:21:04.097Z,23.29
2022-09-06T19:23:33.598Z,23.24
2022-09-06T19:26:07.074Z,23.17
2022-09-06T19:28:34.942Z,23.10
2022-09-06T19:31:16.132Z,23.08
2022-09-06T19:33:43.984Z,23.00
2022-09-06T19:36:12.356Z,22.93
2022-09-06T19:39:02.052Z,22.91
2022-09-06T19:41:27.601Z,22.92
2022-09-06T19:43:55.824Z,22.91
2022-09-06T19:46:23.271Z,22.82
2022-09-06T19:48:51.638Z,22.82
2022-09-06T19:51:18.777Z,22.76
2022-09-06T19:53:53.276Z,22.70
2022-09-06T19:56:25.046Z,22.66
2022-09-06T19:58:55.920Z,22.65
2022-09-06T20:01:23.865Z,22.59
2022-09-06T20:03:51.004Z,22.53
2022-09-06T20:06:18.098Z,22.34
2022-09-06T20:08:48.722Z,22.44
2022-09-06T20:11:15.621Z,22.39
2022-09-06T20:13:42.912Z,22.36
2022-09-06T20:16:10.478Z,22.37
2022-09-06T20:18:37.901Z,22.28
2022-09-06T20:21:05.106Z,22.31
2022-09-06T20:23:32.822Z,22.23
2022-09-06T20:26:01.088Z,22.18
2022-09-06T20:28:28.048Z,22.11
2022-09-06T20:31:02.346Z,22.14
2022-09-06T20:33:29.645Z,22.21
2022-09-06T20:35:58.259Z,22.15
2022-09-06T20:38:25.555Z,22.15
2022-09-06T20:41:06.013Z,22.11
2022-09-06T20:43:36.536Z,22.11
2022-09-06T20:46:04.685Z,22.02
2022-09-06T20:48:34.887Z,21.99
2022-09-06T20:51:03.050Z,21.93
2022-09-06T20:53:30.572Z,21.90
2022-09-06T20:55:58.900Z,21.91
2022-09-06T20:58:26.222Z,21.85
2022-09-06T21:00:53.287Z,21.88
2022-09-06T21:03:20.550Z,21.79
2022-09-06T21:05:47.683Z,21.78
2022-09-06T21:08:14.948Z,21.77
2022-09-06T21:10:41.916Z,21.71
2022-09-06T21:13:09.923Z,21.68
2022-09-06T21:15:37.362Z,21.67
2022-09-06T21:18:04.711Z,21.67
2022-09-06T21:20:31.863Z,21.64
2022-09-06T21:22:58.819Z,21.55
2022-09-06T21:25:25.676Z,21.47
2022-09-06T21:27:55.762Z,21.40
2022-09-06T21:30:22.927Z,21.38
2022-09-06T21:32:53.435Z,21.38
2022-09-06T21:35:20.628Z,21.38
2022-09-06T21:37:47.525Z,21.38
2022-09-06T21:40:14.499Z,21.27
2022-09-06T21:42:41.598Z,21.21
2022-09-06T21:45:08.940Z,21.23
2022-09-06T21:47:35.848Z,21.12
2022-09-06T21:50:03.042Z,21.17
2022-09-06T21:52:32.452Z,21.13
2022-09-06T21:54:59.588Z,21.15
2022-09-06T21:57:26.739Z,21.17
2022-09-06T21:59:53.683Z,21.15
2022-09-06T22:02:21.432Z,21.09
2022-09-06T22:04:49.528Z,21.07
2022-09-06T22:07:16.408Z,21.04
2022-09-06T22:09:43.467Z,20.98
2022-09-06T22:12:10.555Z,20.90
2022-09-06T22:14:37.483Z,20.83
2022-09-06T22:17:04.430Z,20.85
2022-09-06T22:19:31.475Z,20.82
2022-09-06T22:21:58.454Z,20.78
2022-09-06T22:24:25.298Z,20.77
2022-09-06T22:26:52.348Z,20.81
2022-09-06T22:29:19.181Z,20.79
2022-09-06T22:31:46.259Z,20.73
2022-09-06T22:34:13.477Z,20.71
2022-09-06T22:36:40.455Z,20.66
2022-09-06T22:39:07.438Z,20.65
2022-09-06T22:41:35.148Z,20.65
2022-09-06T22:44:02.605Z,20.61
2022-09-06T22:46:29.671Z,20.58
2022-09-06T22:48:57.208Z,20.52
2022-09-06T22:51:24.055Z,20.54
2022-09-06T22:53:50.877Z,20.54
2022-09-06T22:56:18.167Z,20.50
2022-09-06T22:58:45.038Z,20.48
2022-09-06T23:01:13.288Z,20.47
2022-09-06T23:06:08.989Z,20.45
2022-09-06T23:08:37.211Z,20.36
2022-09-06T23:11:12.524Z,20.35
2022-09-06T23:13:43.522Z,20.30
2022-09-06T23:16:12.874Z,20.28
2022-09-06T23:18:39.999Z,20.31
2022-09-06T23:21:07.130Z,20.24
2022-09-06T23:23:35.090Z,20.22
2022-09-06T23:26:28.950Z,20.20
2022-09-06T23:28:58.827Z,20.14
2022-09-06T23:31:27.942Z,20.12
2022-09-06T23:33:59.072Z,20.16
2022-09-06T23:36:26.426Z,20.15
2022-09-06T23:38:53.495Z,20.15
2022-09-06T23:41:20.523Z,20.08
2022-09-06T23:43:47.539Z,20.10
2022-09-06T23:46:17.237Z,20.09
2022-09-06T23:48:44.257Z,20.07
2022-09-06T23:51:11.627Z,20.05
2022-09-06T23:53:38.699Z,20.02
2022-09-06T23:56:06.917Z,20.01
2022-09-06T23:58:34.505Z,19.97
